sensor_id;sensor_type;location;lat;lon;timestamp;temperature;humidity
69503;SHT31;56704;54.242;12.442;2023-05-07T00:01:35;7.59;91.07
69503;SHT31;56704;54.242;12.442;2023-05-07T00:04:01;7.57;91.08
69503;SHT31;56704;54.242;12.442;2023-05-07T00:06:28;7.53;90.98
69503;SHT31;56704;54.242;12.442;2023-05-07T00:08:56;7.53;90.95
69503;SHT31;56704;54.242;12.442;2023-05-07T00:11:22;7.56;90.80
69503;SHT31;56704;54.242;12.442;2023-05-07T00:13:49;7.56;90.71
69503;SHT31;56704;54.242;12.442;2023-05-07T00:16:16;7.57;90.75
69503;SHT31;56704;54.242;12.442;2023-05-07T00:18:44;7.54;90.79
69503;SHT31;56704;54.242;12.442;2023-05-07T00:21:11;7.60;90.80
69503;SHT31;56704;54.242;12.442;2023-05-07T00:23:37;7.60;90.92
69503;SHT31;56704;54.242;12.442;2023-05-07T00:26:04;7.57;90.66
69503;SHT31;56704;54.242;12.442;2023-05-07T00:28:31;7.53;90.75
69503;SHT31;56704;54.242;12.442;2023-05-07T00:30:57;7.59;90.85
69503;SHT31;56704;54.242;12.442;2023-05-07T00:33:24;7.53;90.59
69503;SHT31;56704;54.242;12.442;2023-05-07T00:35:53;7.59;90.69
69503;SHT31;56704;54.242;12.442;2023-05-07T00:38:20;7.59;90.75
69503;SHT31;56704;54.242;12.442;2023-05-07T00:40:47;7.53;90.80
69503;SHT31;56704;54.242;12.442;2023-05-07T00:43:13;7.56;90.90
69503;SHT31;56704;54.242;12.442;2023-05-07T00:45:40;7.61;90.93
69503;SHT31;56704;54.242;12.442;2023-05-07T00:48:06;7.60;90.62
69503;SHT31;56704;54.242;12.442;2023-05-07T00:50:33;7.60;90.52
69503;SHT31;56704;54.242;12.442;2023-05-07T00:53:01;7.61;90.63
69503;SHT31;56704;54.242;12.442;2023-05-07T00:55:28;7.64;90.60
69503;SHT31;56704;54.242;12.442;2023-05-07T00:57:55;7.64;90.81
69503;SHT31;56704;54.242;12.442;2023-05-07T01:00:21;7.60;90.70
69503;SHT31;56704;54.242;12.442;2023-05-07T01:02:49;7.60;90.74
69503;SHT31;56704;54.242;12.442;2023-05-07T01:05:17;7.57;90.65
69503;SHT31;56704;54.242;12.442;2023-05-07T01:07:45;7.54;90.67
69503;SHT31;56704;54.242;12.442;2023-05-07T01:10:14;7.54;90.84
69503;SHT31;56704;54.242;12.442;2023-05-07T01:12:41;7.56;90.78
69503;SHT31;56704;54.242;12.442;2023-05-07T01:15:09;7.54;90.61
69503;SHT31;56704;54.242;12.442;2023-05-07T01:17:37;7.50;91.13
69503;SHT31;56704;54.242;12.442;2023-05-07T01:20:05;7.51;90.93
69503;SHT31;56704;54.242;12.442;2023-05-07T01:22:34;7.54;91.29
69503;SHT31;56704;54.242;12.442;2023-05-07T01:25:02;7.53;90.53
69503;SHT31;56704;54.242;12.442;2023-05-07T01:27:29;7.57;90.89
69503;SHT31;56704;54.242;12.442;2023-05-07T01:29:56;7.56;90.92
69503;SHT31;56704;54.242;12.442;2023-05-07T01:32:27;7.57;90.78
69503;SHT31;56704;54.242;12.442;2023-05-07T01:34:55;7.56;91.09
69503;SHT31;56704;54.242;12.442;2023-05-07T01:37:23;7.57;90.80
69503;SHT31;56704;54.242;12.442;2023-05-07T01:39:52;7.51;90.85
69503;SHT31;56704;54.242;12.442;2023-05-07T01:42:20;7.51;90.99
69503;SHT31;56704;54.242;12.442;2023-05-07T01:44:46;7.51;90.83
69503;SHT31;56704;54.242;12.442;2023-05-07T01:47:13;7.50;90.93
69503;SHT31;56704;54.242;12.442;2023-05-07T01:49:41;7.46;90.86
69503;SHT31;56704;54.242;12.442;2023-05-07T01:52:10;7.46;90.88
69503;SHT31;56704;54.242;12.442;2023-05-07T01:54:36;7.39;91.04
69503;SHT31;56704;54.242;12.442;2023-05-07T01:57:04;7.33;91.17
69503;SHT31;56704;54.242;12.442;2023-05-07T01:59:31;7.30;91.22
69503;SHT31;56704;54.242;12.442;2023-05-07T02:01:58;7.30;91.29
69503;SHT31;56704;54.242;12.442;2023-05-07T02:04:24;7.27;91.19
69503;SHT31;56704;54.242;12.442;2023-05-07T02:06:51;7.26;90.97
69503;SHT31;56704;54.242;12.442;2023-05-07T02:09:18;7.29;91.14
69503;SHT31;56704;54.242;12.442;2023-05-07T02:11:45;7.24;91.17
69503;SHT31;56704;54.242;12.442;2023-05-07T02:14:13;7.26;91.27
69503;SHT31;56704;54.242;12.442;2023-05-07T02:16:40;7.18;91.46
69503;SHT31;56704;54.242;12.442;2023-05-07T02:19:07;7.10;91.18
69503;SHT31;56704;54.242;12.442;2023-05-07T02:21:33;7.09;91.35
69503;SHT31;56704;54.242;12.442;2023-05-07T02:24:00;7.02;91.39
69503;SHT31;56704;54.242;12.442;2023-05-07T02:26:26;6.99;91.38
69503;SHT31;56704;54.242;12.442;2023-05-07T02:28:53;6.93;91.90
69503;SHT31;56704;54.242;12.442;2023-05-07T02:31:21;6.93;91.78
69503;SHT31;56704;54.242;12.442;2023-05-07T02:33:48;6.89;92.02
69503;SHT31;56704;54.242;12.442;2023-05-07T02:36:14;6.85;91.79
69503;SHT31;56704;54.242;12.442;2023-05-07T02:38:41;6.84;91.85
69503;SHT31;56704;54.242;12.442;2023-05-07T02:41:07;6.78;91.77
69503;SHT31;56704;54.242;12.442;2023-05-07T02:43:34;6.77;92.05
69503;SHT31;56704;54.242;12.442;2023-05-07T02:46:02;6.71;91.90
69503;SHT31;56704;54.242;12.442;2023-05-07T02:48:30;6.64;92.02
69503;SHT31;56704;54.242;12.442;2023-05-07T02:50:57;6.60;92.14
69503;SHT31;56704;54.242;12.442;2023-05-07T02:53:24;6.54;92.25
69503;SHT31;56704;54.242;12.442;2023-05-07T02:55:52;6.50;92.26
69503;SHT31;56704;54.242;12.442;2023-05-07T02:58:19;6.48;92.30
69503;SHT31;56704;54.242;12.442;2023-05-07T03:00:47;6.47;92.39
69503;SHT31;56704;54.242;12.442;2023-05-07T03:03:14;6.45;92.73
69503;SHT31;56704;54.242;12.442;2023-05-07T03:05:42;6.38;92.48
69503;SHT31;56704;54.242;12.442;2023-05-07T03:08:10;6.38;92.54
69503;SHT31;56704;54.242;12.442;2023-05-07T03:10:37;6.34;92.70
69503;SHT31;56704;54.242;12.442;2023-05-07T03:13:04;6.33;92.70
69503;SHT31;56704;54.242;12.442;2023-05-07T03:15:30;6.30;92.67
69503;SHT31;56704;54.242;12.442;2023-05-07T03:17:57;6.33;92.65
69503;SHT31;56704;54.242;12.442;2023-05-07T03:20:24;6.30;92.70
69503;SHT31;56704;54.242;12.442;2023-05-07T03:22:52;6.27;92.91
69503;SHT31;56704;54.242;12.442;2023-05-07T03:25:18;6.29;92.93
69503;SHT31;56704;54.242;12.442;2023-05-07T03:27:45;6.30;92.93
69503;SHT31;56704;54.242;12.442;2023-05-07T03:30:12;6.31;92.90
69503;SHT31;56704;54.242;12.442;2023-05-07T03:32:39;6.29;92.72
69503;SHT31;56704;54.242;12.442;2023-05-07T03:35:06;6.24;92.77
69503;SHT31;56704;54.242;12.442;2023-05-07T03:37:32;6.24;92.86
69503;SHT31;56704;54.242;12.442;2023-05-07T03:40:00;6.26;92.90
69503;SHT31;56704;54.242;12.442;2023-05-07T03:42:28;6.24;92.57
69503;SHT31;56704;54.242;12.442;2023-05-07T03:44:55;6.23;92.72
69503;SHT31;56704;54.242;12.442;2023-05-07T03:47:21;6.26;92.91
69503;SHT31;56704;54.242;12.442;2023-05-07T03:49:48;6.29;92.74
69503;SHT31;56704;54.242;12.442;2023-05-07T03:52:15;6.23;92.73
69503;SHT31;56704;54.242;12.442;2023-05-07T03:54:48;6.23;93.10
69503;SHT31;56704;54.242;12.442;2023-05-07T03:57:17;6.17;92.85
69503;SHT31;56704;54.242;12.442;2023-05-07T03:59:43;6.14;93.00
69503;SHT31;56704;54.242;12.442;2023-05-07T04:02:10;6.10;92.99
69503;SHT31;56704;54.242;12.442;2023-05-07T04:04:36;6.14;93.04
69503;SHT31;56704;54.242;12.442;2023-05-07T04:07:03;6.16;93.11
69503;SHT31;56704;54.242;12.442;2023-05-07T04:09:30;6.23;93.19
69503;SHT31;56704;54.242;12.442;2023-05-07T04:11:56;6.23;92.95
69503;SHT31;56704;54.242;12.442;2023-05-07T04:14:24;6.30;93.18
69503;SHT31;56704;54.242;12.442;2023-05-07T04:16:51;6.29;93.00
69503;SHT31;56704;54.242;12.442;2023-05-07T04:19:17;6.29;93.06
69503;SHT31;56704;54.242;12.442;2023-05-07T04:21:44;6.34;93.13
69503;SHT31;56704;54.242;12.442;2023-05-07T04:24:11;6.44;93.23
69503;SHT31;56704;54.242;12.442;2023-05-07T04:26:37;6.47;93.00
69503;SHT31;56704;54.242;12.442;2023-05-07T04:29:04;6.50;93.08
69503;SHT31;56704;54.242;12.442;2023-05-07T04:31:32;6.52;93.00
69503;SHT31;56704;54.242;12.442;2023-05-07T04:33:59;6.57;93.01
69503;SHT31;56704;54.242;12.442;2023-05-07T04:36:26;6.61;92.92
69503;SHT31;56704;54.242;12.442;2023-05-07T04:38:54;6.65;92.85
69503;SHT31;56704;54.242;12.442;2023-05-07T04:41:20;6.71;92.86
69503;SHT31;56704;54.242;12.442;2023-05-07T04:43:47;6.75;92.78
69503;SHT31;56704;54.242;12.442;2023-05-07T04:46:14;6.78;92.70
69503;SHT31;56704;54.242;12.442;2023-05-07T04:48:42;6.81;92.76
69503;SHT31;56704;54.242;12.442;2023-05-07T04:51:08;6.87;92.76
69503;SHT31;56704;54.242;12.442;2023-05-07T04:53:35;6.91;92.78
69503;SHT31;56704;54.242;12.442;2023-05-07T04:56:01;6.96;92.74
69503;SHT31;56704;54.242;12.442;2023-05-07T04:58:28;6.99;92.73
69503;SHT31;56704;54.242;12.442;2023-05-07T05:00:56;7.10;92.68
69503;SHT31;56704;54.242;12.442;2023-05-07T05:03:23;7.13;92.53
69503;SHT31;56704;54.242;12.442;2023-05-07T05:05:52;7.16;92.57
69503;SHT31;56704;54.242;12.442;2023-05-07T05:08:19;7.20;92.51
69503;SHT31;56704;54.242;12.442;2023-05-07T05:10:45;7.29;92.59
69503;SHT31;56704;54.242;12.442;2023-05-07T05:13:13;7.34;92.53
69503;SHT31;56704;54.242;12.442;2023-05-07T05:15:40;7.43;92.42
69503;SHT31;56704;54.242;12.442;2023-05-07T05:18:07;7.51;92.31
69503;SHT31;56704;54.242;12.442;2023-05-07T05:20:33;7.57;92.08
69503;SHT31;56704;54.242;12.442;2023-05-07T05:23:04;7.67;92.00
69503;SHT31;56704;54.242;12.442;2023-05-07T05:25:31;7.75;91.93
69503;SHT31;56704;54.242;12.442;2023-05-07T05:27:57;7.88;91.69
69503;SHT31;56704;54.242;12.442;2023-05-07T05:30:24;8.02;91.48
69503;SHT31;56704;54.242;12.442;2023-05-07T05:32:51;8.09;90.91
69503;SHT31;56704;54.242;12.442;2023-05-07T05:35:17;8.19;90.33
69503;SHT31;56704;54.242;12.442;2023-05-07T05:37:44;8.25;90.23
69503;SHT31;56704;54.242;12.442;2023-05-07T05:40:12;8.38;89.70
69503;SHT31;56704;54.242;12.442;2023-05-07T05:42:39;8.48;89.17
69503;SHT31;56704;54.242;12.442;2023-05-07T05:45:07;8.61;88.95
69503;SHT31;56704;54.242;12.442;2023-05-07T05:47:34;8.70;88.36
69503;SHT31;56704;54.242;12.442;2023-05-07T05:50:01;8.77;88.19
69503;SHT31;56704;54.242;12.442;2023-05-07T05:52:27;8.80;87.89
69503;SHT31;56704;54.242;12.442;2023-05-07T05:54:54;8.94;87.46
69503;SHT31;56704;54.242;12.442;2023-05-07T05:57:22;9.03;87.17
69503;SHT31;56704;54.242;12.442;2023-05-07T05:59:48;9.05;86.38
69503;SHT31;56704;54.242;12.442;2023-05-07T06:02:15;9.15;85.79
69503;SHT31;56704;54.242;12.442;2023-05-07T06:04:42;9.28;85.61
69503;SHT31;56704;54.242;12.442;2023-05-07T06:07:08;9.34;85.10
69503;SHT31;56704;54.242;12.442;2023-05-07T06:09:35;9.38;85.21
69503;SHT31;56704;54.242;12.442;2023-05-07T06:12:02;9.39;84.73
69503;SHT31;56704;54.242;12.442;2023-05-07T06:14:30;9.58;83.89
69503;SHT31;56704;54.242;12.442;2023-05-07T06:16:56;9.63;83.69
69503;SHT31;56704;54.242;12.442;2023-05-07T06:19:23;9.72;82.50
69503;SHT31;56704;54.242;12.442;2023-05-07T06:21:51;9.76;82.84
69503;SHT31;56704;54.242;12.442;2023-05-07T06:24:18;9.82;82.26
69503;SHT31;56704;54.242;12.442;2023-05-07T06:26:45;9.93;81.88
69503;SHT31;56704;54.242;12.442;2023-05-07T06:29:12;9.97;82.35
69503;SHT31;56704;54.242;12.442;2023-05-07T06:31:40;9.97;81.24
69503;SHT31;56704;54.242;12.442;2023-05-07T06:34:07;10.01;80.51
69503;SHT31;56704;54.242;12.442;2023-05-07T06:36:34;10.06;80.71
69503;SHT31;56704;54.242;12.442;2023-05-07T06:39:00;10.20;80.74
69503;SHT31;56704;54.242;12.442;2023-05-07T06:41:27;10.29;80.03
69503;SHT31;56704;54.242;12.442;2023-05-07T06:43:53;10.27;79.46
69503;SHT31;56704;54.242;12.442;2023-05-07T06:46:20;10.36;79.49
69503;SHT31;56704;54.242;12.442;2023-05-07T06:48:48;10.42;78.99
69503;SHT31;56704;54.242;12.442;2023-05-07T06:51:15;10.52;78.83
69503;SHT31;56704;54.242;12.442;2023-05-07T06:53:41;10.51;79.18
69503;SHT31;56704;54.242;12.442;2023-05-07T06:56:08;10.60;78.23
69503;SHT31;56704;54.242;12.442;2023-05-07T06:58:34;10.54;80.21
69503;SHT31;56704;54.242;12.442;2023-05-07T07:01:01;10.75;78.61
69503;SHT31;56704;54.242;12.442;2023-05-07T07:03:28;10.89;78.12
69503;SHT31;56704;54.242;12.442;2023-05-07T07:05:56;10.88;77.29
69503;SHT31;56704;54.242;12.442;2023-05-07T07:08:22;10.96;78.04
69503;SHT31;56704;54.242;12.442;2023-05-07T07:10:49;10.96;76.70
69503;SHT31;56704;54.242;12.442;2023-05-07T07:13:15;11.03;78.08
69503;SHT31;56704;54.242;12.442;2023-05-07T07:15:43;11.23;77.97
69503;SHT31;56704;54.242;12.442;2023-05-07T07:18:10;11.70;75.26
69503;SHT31;56704;54.242;12.442;2023-05-07T07:20:36;12.08;75.68
69503;SHT31;56704;54.242;12.442;2023-05-07T07:23:04;12.32;72.89
69503;SHT31;56704;54.242;12.442;2023-05-07T07:25:31;12.48;71.83
69503;SHT31;56704;54.242;12.442;2023-05-07T07:27:58;12.73;73.06
69503;SHT31;56704;54.242;12.442;2023-05-07T07:30:25;13.00;70.58
69503;SHT31;56704;54.242;12.442;2023-05-07T07:32:52;13.27;69.78
69503;SHT31;56704;54.242;12.442;2023-05-07T07:35:19;13.21;67.00
69503;SHT31;56704;54.242;12.442;2023-05-07T07:37:46;13.31;67.67
69503;SHT31;56704;54.242;12.442;2023-05-07T07:40:16;13.20;66.62
69503;SHT31;56704;54.242;12.442;2023-05-07T07:42:43;13.27;66.10
69503;SHT31;56704;54.242;12.442;2023-05-07T07:45:10;13.54;69.23
69503;SHT31;56704;54.242;12.442;2023-05-07T07:47:37;13.59;67.26
69503;SHT31;56704;54.242;12.442;2023-05-07T07:50:04;13.32;66.68
69503;SHT31;56704;54.242;12.442;2023-05-07T07:52:32;13.34;67.44
69503;SHT31;56704;54.242;12.442;2023-05-07T07:54:58;13.47;66.85
69503;SHT31;56704;54.242;12.442;2023-05-07T07:57:26;13.65;63.09
69503;SHT31;56704;54.242;12.442;2023-05-07T07:59:53;13.68;64.52
69503;SHT31;56704;54.242;12.442;2023-05-07T08:02:20;13.62;62.49
69503;SHT31;56704;54.242;12.442;2023-05-07T08:04:46;13.59;62.01
69503;SHT31;56704;54.242;12.442;2023-05-07T08:07:13;13.52;61.91
69503;SHT31;56704;54.242;12.442;2023-05-07T08:09:40;13.65;62.14
69503;SHT31;56704;54.242;12.442;2023-05-07T08:12:07;13.76;62.78
69503;SHT31;56704;54.242;12.442;2023-05-07T08:14:35;13.52;61.47
69503;SHT31;56704;54.242;12.442;2023-05-07T08:17:02;13.59;62.82
69503;SHT31;56704;54.242;12.442;2023-05-07T08:19:29;13.87;62.64
69503;SHT31;56704;54.242;12.442;2023-05-07T08:21:56;13.76;61.79
69503;SHT31;56704;54.242;12.442;2023-05-07T08:24:22;13.87;62.67
69503;SHT31;56704;54.242;12.442;2023-05-07T08:26:49;13.83;61.53
69503;SHT31;56704;54.242;12.442;2023-05-07T08:29:18;13.91;61.74
69503;SHT31;56704;54.242;12.442;2023-05-07T08:31:50;13.91;59.65
69503;SHT31;56704;54.242;12.442;2023-05-07T08:34:17;13.99;60.51
69503;SHT31;56704;54.242;12.442;2023-05-07T08:36:44;13.98;57.13
69503;SHT31;56704;54.242;12.442;2023-05-07T08:39:12;13.93;58.88
69503;SHT31;56704;54.242;12.442;2023-05-07T08:41:40;13.86;58.09
69503;SHT31;56704;54.242;12.442;2023-05-07T08:44:11;14.07;60.05
69503;SHT31;56704;54.242;12.442;2023-05-07T08:46:39;14.00;58.02
69503;SHT31;56704;54.242;12.442;2023-05-07T08:49:07;14.19;59.34
69503;SHT31;56704;54.242;12.442;2023-05-07T08:51:34;14.10;56.78
69503;SHT31;56704;54.242;12.442;2023-05-07T08:54:01;14.31;56.83
69503;SHT31;56704;54.242;12.442;2023-05-07T08:56:27;14.30;55.34
69503;SHT31;56704;54.242;12.442;2023-05-07T08:58:55;14.33;55.36
69503;SHT31;56704;54.242;12.442;2023-05-07T09:01:24;14.36;55.58
69503;SHT31;56704;54.242;12.442;2023-05-07T09:04:29;14.47;54.51
69503;SHT31;56704;54.242;12.442;2023-05-07T09:06:57;14.60;54.86
69503;SHT31;56704;54.242;12.442;2023-05-07T09:09:28;14.56;55.47
69503;SHT31;56704;54.242;12.442;2023-05-07T09:11:57;14.58;54.07
69503;SHT31;56704;54.242;12.442;2023-05-07T09:14:25;14.65;54.87
69503;SHT31;56704;54.242;12.442;2023-05-07T09:16:52;14.69;54.64
69503;SHT31;56704;54.242;12.442;2023-05-07T09:19:22;14.79;52.88
69503;SHT31;56704;54.242;12.442;2023-05-07T09:21:57;14.72;52.65
69503;SHT31;56704;54.242;12.442;2023-05-07T09:24:24;14.91;52.19
69503;SHT31;56704;54.242;12.442;2023-05-07T09:26:51;14.98;51.17
69503;SHT31;56704;54.242;12.442;2023-05-07T09:29:17;14.99;51.68
69503;SHT31;56704;54.242;12.442;2023-05-07T09:31:44;15.19;52.77
69503;SHT31;56704;54.242;12.442;2023-05-07T09:34:11;15.05;51.28
69503;SHT31;56704;54.242;12.442;2023-05-07T09:36:38;15.28;51.89
69503;SHT31;56704;54.242;12.442;2023-05-07T09:39:07;15.26;52.17
69503;SHT31;56704;54.242;12.442;2023-05-07T09:41:43;15.26;52.33
69503;SHT31;56704;54.242;12.442;2023-05-07T09:44:10;15.38;51.47
69503;SHT31;56704;54.242;12.442;2023-05-07T09:46:38;15.51;52.78
69503;SHT31;56704;54.242;12.442;2023-05-07T09:49:07;15.63;52.42
69503;SHT31;56704;54.242;12.442;2023-05-07T09:51:41;15.70;51.19
69503;SHT31;56704;54.242;12.442;2023-05-07T09:54:10;15.83;50.97
69503;SHT31;56704;54.242;12.442;2023-05-07T09:56:37;15.83;50.96
69503;SHT31;56704;54.242;12.442;2023-05-07T09:59:06;16.00;52.08
69503;SHT31;56704;54.242;12.442;2023-05-07T10:01:36;16.21;52.31
69503;SHT31;56704;54.242;12.442;2023-05-07T10:04:03;16.26;51.68
69503;SHT31;56704;54.242;12.442;2023-05-07T10:06:30;16.38;50.72
69503;SHT31;56704;54.242;12.442;2023-05-07T10:08:57;16.33;50.57
69503;SHT31;56704;54.242;12.442;2023-05-07T10:11:26;16.76;51.04
69503;SHT31;56704;54.242;12.442;2023-05-07T10:13:53;16.72;48.82
69503;SHT31;56704;54.242;12.442;2023-05-07T10:16:20;16.90;49.68
69503;SHT31;56704;54.242;12.442;2023-05-07T10:18:47;16.96;50.43
69503;SHT31;56704;54.242;12.442;2023-05-07T10:21:17;17.21;50.72
69503;SHT31;56704;54.242;12.442;2023-05-07T10:23:45;17.28;49.76
69503;SHT31;56704;54.242;12.442;2023-05-07T10:26:15;16.91;47.47
69503;SHT31;56704;54.242;12.442;2023-05-07T10:28:46;17.20;47.71
69503;SHT31;56704;54.242;12.442;2023-05-07T10:31:24;17.47;46.65
69503;SHT31;56704;54.242;12.442;2023-05-07T10:33:54;17.61;45.05
69503;SHT31;56704;54.242;12.442;2023-05-07T10:36:22;17.51;44.39
69503;SHT31;56704;54.242;12.442;2023-05-07T10:38:49;17.58;46.10
69503;SHT31;56704;54.242;12.442;2023-05-07T10:41:16;17.99;46.64
69503;SHT31;56704;54.242;12.442;2023-05-07T10:43:45;17.67;44.07
69503;SHT31;56704;54.242;12.442;2023-05-07T10:46:15;17.79;44.01
69503;SHT31;56704;54.242;12.442;2023-05-07T10:49:07;17.49;42.70
69503;SHT31;56704;54.242;12.442;2023-05-07T10:51:35;17.76;43.55
69503;SHT31;56704;54.242;12.442;2023-05-07T10:54:21;17.64;44.15
69503;SHT31;56704;54.242;12.442;2023-05-07T10:56:49;17.54;40.60
69503;SHT31;56704;54.242;12.442;2023-05-07T10:59:36;17.65;42.49
69503;SHT31;56704;54.242;12.442;2023-05-07T11:02:09;17.90;40.93
69503;SHT31;56704;54.242;12.442;2023-05-07T11:04:38;18.23;42.20
69503;SHT31;56704;54.242;12.442;2023-05-07T11:07:33;18.22;38.79
69503;SHT31;56704;54.242;12.442;2023-05-07T11:10:04;18.23;40.40
69503;SHT31;56704;54.242;12.442;2023-05-07T11:12:50;18.13;39.28
69503;SHT31;56704;54.242;12.442;2023-05-07T11:15:39;18.16;40.21
69503;SHT31;56704;54.242;12.442;2023-05-07T11:18:07;18.40;41.42
69503;SHT31;56704;54.242;12.442;2023-05-07T11:20:54;18.79;40.62
69503;SHT31;56704;54.242;12.442;2023-05-07T11:23:55;18.37;40.14
69503;SHT31;56704;54.242;12.442;2023-05-07T11:26:23;18.64;39.18
69503;SHT31;56704;54.242;12.442;2023-05-07T11:28:51;18.53;39.04
69503;SHT31;56704;54.242;12.442;2023-05-07T11:31:23;18.89;39.65
69503;SHT31;56704;54.242;12.442;2023-05-07T11:33:52;18.98;39.86
69503;SHT31;56704;54.242;12.442;2023-05-07T11:36:18;19.12;38.98
69503;SHT31;56704;54.242;12.442;2023-05-07T11:38:46;19.12;37.25
69503;SHT31;56704;54.242;12.442;2023-05-07T11:41:13;18.98;37.67
69503;SHT31;56704;54.242;12.442;2023-05-07T11:43:54;19.28;38.13
69503;SHT31;56704;54.242;12.442;2023-05-07T11:49:54;18.74;37.05
69503;SHT31;56704;54.242;12.442;2023-05-07T11:52:22;19.19;38.06
69503;SHT31;56704;54.242;12.442;2023-05-07T11:54:49;19.47;37.52
69503;SHT31;56704;54.242;12.442;2023-05-07T11:57:16;19.74;36.03
69503;SHT31;56704;54.242;12.442;2023-05-07T11:59:43;19.81;37.10
69503;SHT31;56704;54.242;12.442;2023-05-07T12:02:10;20.06;36.86
69503;SHT31;56704;54.242;12.442;2023-05-07T12:04:38;20.28;35.89
69503;SHT31;56704;54.242;12.442;2023-05-07T12:07:06;19.78;36.29
69503;SHT31;56704;54.242;12.442;2023-05-07T12:09:37;19.91;36.64
69503;SHT31;56704;54.242;12.442;2023-05-07T12:12:04;20.41;35.07
69503;SHT31;56704;54.242;12.442;2023-05-07T12:14:31;20.45;36.71
69503;SHT31;56704;54.242;12.442;2023-05-07T12:16:58;20.55;34.57
69503;SHT31;56704;54.242;12.442;2023-05-07T12:19:28;20.85;35.75
69503;SHT31;56704;54.242;12.442;2023-05-07T12:21:55;20.46;36.32
69503;SHT31;56704;54.242;12.442;2023-05-07T12:24:23;20.66;36.64
69503;SHT31;56704;54.242;12.442;2023-05-07T12:26:49;20.73;35.98
69503;SHT31;56704;54.242;12.442;2023-05-07T12:29:16;20.69;37.09
69503;SHT31;56704;54.242;12.442;2023-05-07T12:31:43;20.79;36.52
69503;SHT31;56704;54.242;12.442;2023-05-07T12:34:10;20.71;36.45
69503;SHT31;56704;54.242;12.442;2023-05-07T12:36:37;20.96;36.16
69503;SHT31;56704;54.242;12.442;2023-05-07T12:39:05;21.10;36.19
69503;SHT31;56704;54.242;12.442;2023-05-07T12:41:52;21.08;36.54
69503;SHT31;56704;54.242;12.442;2023-05-07T12:44:19;21.24;35.79
69503;SHT31;56704;54.242;12.442;2023-05-07T12:46:48;21.14;36.11
69503;SHT31;56704;54.242;12.442;2023-05-07T12:49:14;21.00;35.91
69503;SHT31;56704;54.242;12.442;2023-05-07T12:51:41;21.43;35.14
69503;SHT31;56704;54.242;12.442;2023-05-07T12:54:08;21.36;35.60
69503;SHT31;56704;54.242;12.442;2023-05-07T12:56:36;21.11;36.95
69503;SHT31;56704;54.242;12.442;2023-05-07T12:59:03;21.08;38.03
69503;SHT31;56704;54.242;12.442;2023-05-07T13:01:30;21.71;36.32
69503;SHT31;56704;54.242;12.442;2023-05-07T13:04:00;22.17;35.68
69503;SHT31;56704;54.242;12.442;2023-05-07T13:06:27;22.68;34.91
69503;SHT31;56704;54.242;12.442;2023-05-07T13:08:54;22.88;33.88
69503;SHT31;56704;54.242;12.442;2023-05-07T13:11:20;22.77;33.36
69503;SHT31;56704;54.242;12.442;2023-05-07T13:13:48;23.25;33.39
69503;SHT31;56704;54.242;12.442;2023-05-07T13:16:15;22.45;35.56
69503;SHT31;56704;54.242;12.442;2023-05-07T13:18:42;22.49;35.27
69503;SHT31;56704;54.242;12.442;2023-05-07T13:21:10;23.58;33.85
69503;SHT31;56704;54.242;12.442;2023-05-07T13:23:38;22.23;33.77
69503;SHT31;56704;54.242;12.442;2023-05-07T13:26:04;21.69;33.69
69503;SHT31;56704;54.242;12.442;2023-05-07T13:28:31;21.86;34.84
69503;SHT31;56704;54.242;12.442;2023-05-07T13:30:59;22.13;34.15
69503;SHT31;56704;54.242;12.442;2023-05-07T13:33:25;22.28;32.51
69503;SHT31;56704;54.242;12.442;2023-05-07T13:35:52;22.13;33.34
69503;SHT31;56704;54.242;12.442;2023-05-07T13:38:19;22.09;32.64
69503;SHT31;56704;54.242;12.442;2023-05-07T13:40:45;21.96;33.17
69503;SHT31;56704;54.242;12.442;2023-05-07T13:43:12;22.05;33.36
69503;SHT31;56704;54.242;12.442;2023-05-07T13:45:39;21.62;34.80
69503;SHT31;56704;54.242;12.442;2023-05-07T13:48:07;22.16;35.34
69503;SHT31;56704;54.242;12.442;2023-05-07T13:50:34;22.26;32.95
69503;SHT31;56704;54.242;12.442;2023-05-07T13:53:01;22.52;34.20
69503;SHT31;56704;54.242;12.442;2023-05-07T13:55:28;22.81;32.57
69503;SHT31;56704;54.242;12.442;2023-05-07T13:57:58;23.19;31.80
69503;SHT31;56704;54.242;12.442;2023-05-07T14:00:26;23.18;31.80
69503;SHT31;56704;54.242;12.442;2023-05-07T14:02:53;23.01;31.75
69503;SHT31;56704;54.242;12.442;2023-05-07T14:05:22;22.76;32.69
69503;SHT31;56704;54.242;12.442;2023-05-07T14:07:49;22.81;32.18
69503;SHT31;56704;54.242;12.442;2023-05-07T14:10:17;23.76;31.93
69503;SHT31;56704;54.242;12.442;2023-05-07T14:12:44;23.65;30.77
69503;SHT31;56704;54.242;12.442;2023-05-07T14:15:10;23.16;30.60
69503;SHT31;56704;54.242;12.442;2023-05-07T14:17:37;22.91;31.48
69503;SHT31;56704;54.242;12.442;2023-05-07T14:20:05;22.73;31.53
69503;SHT31;56704;54.242;12.442;2023-05-07T14:22:34;22.61;32.27
69503;SHT31;56704;54.242;12.442;2023-05-07T14:25:01;22.50;32.42
69503;SHT31;56704;54.242;12.442;2023-05-07T14:27:28;23.28;30.54
69503;SHT31;56704;54.242;12.442;2023-05-07T14:29:55;23.37;31.08
69503;SHT31;56704;54.242;12.442;2023-05-07T14:32:22;22.56;32.05
69503;SHT31;56704;54.242;12.442;2023-05-07T14:34:49;21.84;33.19
69503;SHT31;56704;54.242;12.442;2023-05-07T14:37:15;21.44;33.86
69503;SHT31;56704;54.242;12.442;2023-05-07T14:39:46;21.23;34.17
69503;SHT31;56704;54.242;12.442;2023-05-07T14:42:13;21.06;33.51
69503;SHT31;56704;54.242;12.442;2023-05-07T14:44:40;20.21;35.04
69503;SHT31;56704;54.242;12.442;2023-05-07T14:47:07;20.10;35.55
69503;SHT31;56704;54.242;12.442;2023-05-07T14:49:34;20.38;35.24
69503;SHT31;56704;54.242;12.442;2023-05-07T14:52:00;20.59;35.01
69503;SHT31;56704;54.242;12.442;2023-05-07T14:54:27;19.90;36.23
69503;SHT31;56704;54.242;12.442;2023-05-07T14:56:55;19.91;35.24
69503;SHT31;56704;54.242;12.442;2023-05-07T14:59:22;19.76;35.50
69503;SHT31;56704;54.242;12.442;2023-05-07T15:01:50;19.78;34.95
69503;SHT31;56704;54.242;12.442;2023-05-07T15:04:17;19.47;34.83
69503;SHT31;56704;54.242;12.442;2023-05-07T15:06:44;19.59;35.44
69503;SHT31;56704;54.242;12.442;2023-05-07T15:09:11;19.65;35.32
69503;SHT31;56704;54.242;12.442;2023-05-07T15:11:38;19.23;36.19
69503;SHT31;56704;54.242;12.442;2023-05-07T15:14:06;19.33;36.11
69503;SHT31;56704;54.242;12.442;2023-05-07T15:16:33;19.49;35.07
69503;SHT31;56704;54.242;12.442;2023-05-07T15:19:00;19.74;35.53
69503;SHT31;56704;54.242;12.442;2023-05-07T15:21:27;19.66;35.49
69503;SHT31;56704;54.242;12.442;2023-05-07T15:23:53;19.42;34.87
69503;SHT31;56704;54.242;12.442;2023-05-07T15:26:20;19.59;35.54
69503;SHT31;56704;54.242;12.442;2023-05-07T15:28:47;19.70;35.37
69503;SHT31;56704;54.242;12.442;2023-05-07T15:31:15;19.11;35.42